QXE2057 KPDX-KRDM
Flight info
| Callsign | QXE2057 |
|---|---|
| Flight time | 0h 37m |
| Altitude | 15000 |
| Route | WHAMY5 WHAMY CUPRI |
| Aircraft | E75L/M-SDE3GILORVW/S |
Departure
| Time | 2026-05-04 03:20 |
|---|---|
| Airport | Portland International Airport (KPDX) |
Arrival
| Time | 2026-05-04 03:57 |
|---|---|
| Airport | Roberts Field (KRDM) |
| Time | Latitude | Longitude | Altitude | Speed | Heading |
|---|---|---|---|---|---|
| 2026-05-04 03:01 | 45.58734 | -122.59393 | 32 ft | 0 kts | 7° |
| 2026-05-04 03:10 | 45.58721 | -122.59396 | 32 ft | 4 kts | 12° |
| 2026-05-04 03:10 | 45.58696 | -122.59408 | 32 ft | 4 kts | 31° |
| 2026-05-04 03:10 | 45.58677 | -122.59434 | 33 ft | 4 kts | 66° |
| 2026-05-04 03:10 | 45.58678 | -122.59466 | 33 ft | 2 kts | 124° |
| 2026-05-04 03:11 | 45.58679 | -122.59467 | 33 ft | 0 kts | 124° |
| 2026-05-04 03:14 | 45.58677 | -122.59465 | 33 ft | 1 kts | 124° |
| 2026-05-04 03:15 | 45.58665 | -122.59439 | 33 ft | 5 kts | 127° |
| 2026-05-04 03:15 | 45.58632 | -122.59380 | 32 ft | 10 kts | 129° |
| 2026-05-04 03:15 | 45.58571 | -122.59275 | 29 ft | 17 kts | 129° |
| 2026-05-04 03:15 | 45.58491 | -122.59134 | 29 ft | 20 kts | 129° |
| 2026-05-04 03:16 | 45.58402 | -122.58964 | 29 ft | 23 kts | 120° |
| 2026-05-04 03:16 | 45.58322 | -122.58763 | 30 ft | 25 kts | 118° |
| 2026-05-04 03:16 | 45.58253 | -122.58581 | 31 ft | 9 kts | 117° |
| 2026-05-04 03:16 | 45.58237 | -122.58540 | 31 ft | 6 kts | 120° |
| 2026-05-04 03:17 | 45.58207 | -122.58468 | 30 ft | 11 kts | 121° |
| 2026-05-04 03:17 | 45.58165 | -122.58379 | 28 ft | 7 kts | 137° |
| 2026-05-04 03:17 | 45.58145 | -122.58364 | 28 ft | 3 kts | 163° |
| 2026-05-04 03:17 | 45.58143 | -122.58363 | 28 ft | 0 kts | 164° |
| 2026-05-04 03:18 | 45.58142 | -122.58363 | 28 ft | 2 kts | 166° |
| 2026-05-04 03:18 | 45.58105 | -122.58370 | 28 ft | 9 kts | 207° |
| 2026-05-04 03:18 | 45.58081 | -122.58442 | 30 ft | 8 kts | 274° |
| 2026-05-04 03:18 | 45.58102 | -122.58525 | 32 ft | 9 kts | 299° |
| 2026-05-04 03:19 | 45.58155 | -122.58659 | 35 ft | 35 kts | 299° |
| 2026-05-04 03:19 | 45.58378 | -122.59226 | 29 ft | 94 kts | 300° |
| 2026-05-04 03:19 | 45.58789 | -122.60242 | 63 ft | 140 kts | 301° |
| 2026-05-04 03:19 | 45.59304 | -122.61581 | 576 ft | 161 kts | 297° |
| 2026-05-04 03:20 | 45.59802 | -122.63053 | 1290 ft | 174 kts | 298° |
| 2026-05-04 03:20 | 45.60311 | -122.64707 | 1917 ft | 190 kts | 303° |
| 2026-05-04 03:20 | 45.61119 | -122.66240 | 2380 ft | 195 kts | 311° |
| 2026-05-04 03:20 | 45.61957 | -122.67865 | 2860 ft | 219 kts | 306° |
| 2026-05-04 03:21 | 45.62827 | -122.69883 | 3417 ft | 257 kts | 302° |
| 2026-05-04 03:21 | 45.63744 | -122.72147 | 3935 ft | 267 kts | 302° |
| 2026-05-04 03:21 | 45.64683 | -122.74461 | 4448 ft | 271 kts | 301° |
| 2026-05-04 03:21 | 45.65632 | -122.76807 | 4929 ft | 274 kts | 301° |
| 2026-05-04 03:22 | 45.66324 | -122.79337 | 5401 ft | 277 kts | 281° |
| 2026-05-04 03:22 | 45.66481 | -122.82052 | 5889 ft | 279 kts | 270° |
| 2026-05-04 03:22 | 45.66367 | -122.84861 | 6384 ft | 280 kts | 264° |
| 2026-05-04 03:22 | 45.66033 | -122.87605 | 6857 ft | 281 kts | 255° |
| 2026-05-04 03:23 | 45.65404 | -122.90217 | 7320 ft | 283 kts | 240° |
| 2026-05-04 03:23 | 45.64021 | -122.92238 | 7796 ft | 285 kts | 210° |
| 2026-05-04 03:23 | 45.62125 | -122.93003 | 8305 ft | 288 kts | 181° |
| 2026-05-04 03:23 | 45.60191 | -122.92430 | 8821 ft | 290 kts | 160° |
| 2026-05-04 03:24 | 45.58308 | -122.91343 | 9344 ft | 296 kts | 157° |
| 2026-05-04 03:24 | 45.56547 | -122.89848 | 9857 ft | 299 kts | 137° |
| 2026-05-04 03:24 | 45.55133 | -122.87658 | 10346 ft | 306 kts | 128° |
| 2026-05-04 03:24 | 45.53860 | -122.85138 | 10854 ft | 318 kts | 123° |
| 2026-05-04 03:25 | 45.52679 | -122.82420 | 11360 ft | 327 kts | 120° |
| 2026-05-04 03:25 | 45.51545 | -122.79630 | 11862 ft | 324 kts | 119° |
| 2026-05-04 03:25 | 45.50441 | -122.76832 | 12354 ft | 324 kts | 118° |
| 2026-05-04 03:25 | 45.49425 | -122.73952 | 12849 ft | 326 kts | 113° |
| 2026-05-04 03:26 | 45.48482 | -122.70979 | 13370 ft | 330 kts | 113° |
| 2026-05-04 03:26 | 45.47670 | -122.67933 | 13851 ft | 329 kts | 99° |
| 2026-05-04 03:26 | 45.47453 | -122.64687 | 14328 ft | 331 kts | 97° |
| 2026-05-04 03:26 | 45.46905 | -122.61501 | 14776 ft | 335 kts | 104° |
| 2026-05-04 03:27 | 45.46210 | -122.58317 | 14906 ft | 337 kts | 107° |
| 2026-05-04 03:27 | 45.45461 | -122.55150 | 14970 ft | 337 kts | 108° |
| 2026-05-04 03:27 | 45.44680 | -122.52007 | 14980 ft | 336 kts | 108° |
| 2026-05-04 03:27 | 45.43879 | -122.48888 | 14988 ft | 336 kts | 109° |
| 2026-05-04 03:28 | 45.42826 | -122.45901 | 14992 ft | 339 kts | 121° |
| 2026-05-04 03:28 | 45.41450 | -122.43180 | 15000 ft | 339 kts | 127° |
| 2026-05-04 03:28 | 45.39912 | -122.40627 | 15000 ft | 340 kts | 131° |
| 2026-05-04 03:28 | 45.38277 | -122.38205 | 14993 ft | 340 kts | 133° |
| 2026-05-04 03:29 | 45.36577 | -122.35855 | 14996 ft | 341 kts | 135° |
| 2026-05-04 03:29 | 45.34849 | -122.33537 | 15006 ft | 341 kts | 135° |
| 2026-05-04 03:29 | 45.33114 | -122.31244 | 15011 ft | 342 kts | 136° |
| 2026-05-04 03:29 | 45.31282 | -122.29084 | 15014 ft | 342 kts | 140° |
| 2026-05-04 03:30 | 45.29409 | -122.26990 | 15014 ft | 342 kts | 140° |
| 2026-05-04 03:30 | 45.27536 | -122.24922 | 15025 ft | 342 kts | 141° |
| 2026-05-04 03:30 | 45.25656 | -122.22853 | 15036 ft | 342 kts | 141° |
| 2026-05-04 03:30 | 45.23772 | -122.20782 | 15040 ft | 342 kts | 141° |
| 2026-05-04 03:31 | 45.21895 | -122.18721 | 15038 ft | 342 kts | 141° |
| 2026-05-04 03:31 | 45.20031 | -122.16644 | 15048 ft | 340 kts | 137° |
| 2026-05-04 03:31 | 45.18436 | -122.14183 | 15055 ft | 339 kts | 128° |
| 2026-05-04 03:31 | 45.16962 | -122.11563 | 15000 ft | 340 kts | 126° |
| 2026-05-04 03:32 | 45.15448 | -122.09008 | 14973 ft | 339 kts | 130° |
| 2026-05-04 03:32 | 45.13893 | -122.06510 | 14982 ft | 338 kts | 129° |
| 2026-05-04 03:32 | 45.12317 | -122.04025 | 14951 ft | 338 kts | 131° |
| 2026-05-04 03:32 | 45.10733 | -122.01551 | 14938 ft | 339 kts | 130° |
| 2026-05-04 03:33 | 45.09164 | -121.99080 | 14949 ft | 340 kts | 130° |
| 2026-05-04 03:33 | 45.07589 | -121.96598 | 14950 ft | 339 kts | 130° |
| 2026-05-04 03:33 | 45.06009 | -121.94112 | 14966 ft | 339 kts | 130° |
| 2026-05-04 03:33 | 45.04433 | -121.91631 | 14958 ft | 340 kts | 130° |
| 2026-05-04 03:34 | 45.02856 | -121.89152 | 14952 ft | 339 kts | 130° |
| 2026-05-04 03:34 | 45.01277 | -121.86675 | 14964 ft | 339 kts | 130° |
| 2026-05-04 03:34 | 44.99695 | -121.84193 | 14966 ft | 340 kts | 130° |
| 2026-05-04 03:34 | 44.98115 | -121.81721 | 14958 ft | 339 kts | 130° |
| 2026-05-04 03:35 | 44.96537 | -121.79247 | 14962 ft | 339 kts | 130° |
| 2026-05-04 03:35 | 44.94953 | -121.76771 | 14971 ft | 340 kts | 130° |
| 2026-05-04 03:35 | 44.93367 | -121.74293 | 14969 ft | 339 kts | 130° |
| 2026-05-04 03:35 | 44.91784 | -121.71823 | 14958 ft | 339 kts | 130° |
| 2026-05-04 03:36 | 44.90195 | -121.69346 | 14962 ft | 341 kts | 130° |
| 2026-05-04 03:36 | 44.88598 | -121.66857 | 14848 ft | 343 kts | 130° |
| 2026-05-04 03:36 | 44.87001 | -121.64373 | 14559 ft | 344 kts | 130° |
| 2026-05-04 03:36 | 44.85380 | -121.61848 | 14255 ft | 350 kts | 131° |
| 2026-05-04 03:37 | 44.83745 | -121.59308 | 13957 ft | 350 kts | 130° |
| 2026-05-04 03:37 | 44.82110 | -121.56769 | 13651 ft | 349 kts | 131° |
| 2026-05-04 03:37 | 44.80483 | -121.54247 | 13313 ft | 347 kts | 131° |
| 2026-05-04 03:37 | 44.78863 | -121.51738 | 12971 ft | 345 kts | 131° |
| 2026-05-04 03:38 | 44.77251 | -121.49243 | 12637 ft | 344 kts | 131° |
| 2026-05-04 03:38 | 44.75644 | -121.46755 | 12302 ft | 344 kts | 131° |
| 2026-05-04 03:38 | 44.74037 | -121.44270 | 11878 ft | 342 kts | 131° |
| 2026-05-04 03:38 | 44.72437 | -121.41801 | 11435 ft | 340 kts | 131° |
| 2026-05-04 03:39 | 44.70866 | -121.39376 | 11019 ft | 331 kts | 131° |
| 2026-05-04 03:39 | 44.69353 | -121.37043 | 10539 ft | 317 kts | 131° |
| 2026-05-04 03:39 | 44.67901 | -121.34810 | 10013 ft | 299 kts | 131° |
| 2026-05-04 03:39 | 44.66532 | -121.32699 | 9518 ft | 295 kts | 131° |
| 2026-05-04 03:40 | 44.65146 | -121.30571 | 8995 ft | 296 kts | 131° |
| 2026-05-04 03:40 | 44.63703 | -121.28542 | 8485 ft | 295 kts | 143° |
| 2026-05-04 03:40 | 44.61822 | -121.27459 | 7999 ft | 292 kts | 172° |
| 2026-05-04 03:40 | 44.59891 | -121.27733 | 7516 ft | 272 kts | 200° |
| 2026-05-04 03:41 | 44.58196 | -121.28805 | 7042 ft | 259 kts | 209° |
| 2026-05-04 03:41 | 44.56704 | -121.30064 | 6692 ft | 249 kts | 212° |
| 2026-05-04 03:41 | 44.55259 | -121.31364 | 6468 ft | 246 kts | 213° |
| 2026-05-04 03:41 | 44.53815 | -121.32684 | 6282 ft | 249 kts | 213° |
| 2026-05-04 03:42 | 44.52373 | -121.34009 | 6088 ft | 248 kts | 213° |
| 2026-05-04 03:42 | 44.50934 | -121.35324 | 5965 ft | 247 kts | 213° |
| 2026-05-04 03:42 | 44.49501 | -121.36638 | 5919 ft | 240 kts | 213° |
| 2026-05-04 03:42 | 44.48169 | -121.37858 | 5887 ft | 217 kts | 213° |
| 2026-05-04 03:43 | 44.46957 | -121.38963 | 5828 ft | 200 kts | 213° |
| 2026-05-04 03:43 | 44.45814 | -121.40009 | 5828 ft | 193 kts | 213° |
| 2026-05-04 03:43 | 44.44697 | -121.41029 | 5833 ft | 190 kts | 212° |
| 2026-05-04 03:43 | 44.43590 | -121.42033 | 5840 ft | 191 kts | 213° |
| 2026-05-04 03:44 | 44.42473 | -121.43050 | 5853 ft | 192 kts | 213° |
| 2026-05-04 03:44 | 44.41348 | -121.44079 | 5868 ft | 193 kts | 212° |
| 2026-05-04 03:44 | 44.40227 | -121.45098 | 5859 ft | 188 kts | 213° |
| 2026-05-04 03:44 | 44.39155 | -121.46075 | 5845 ft | 190 kts | 213° |
| 2026-05-04 03:45 | 44.38041 | -121.47092 | 5873 ft | 192 kts | 213° |
| 2026-05-04 03:45 | 44.36908 | -121.48125 | 5876 ft | 192 kts | 213° |
| 2026-05-04 03:45 | 44.35817 | -121.49118 | 5875 ft | 177 kts | 213° |
| 2026-05-04 03:45 | 44.34807 | -121.50039 | 5865 ft | 177 kts | 213° |
| 2026-05-04 03:46 | 44.33769 | -121.50979 | 5858 ft | 180 kts | 213° |
| 2026-05-04 03:46 | 44.32709 | -121.51940 | 5858 ft | 180 kts | 213° |
| 2026-05-04 03:46 | 44.31659 | -121.52895 | 5881 ft | 181 kts | 212° |
| 2026-05-04 03:46 | 44.30608 | -121.53851 | 5865 ft | 181 kts | 212° |
| 2026-05-04 03:47 | 44.29567 | -121.54773 | 5885 ft | 180 kts | 207° |
| 2026-05-04 03:47 | 44.28357 | -121.54974 | 5864 ft | 175 kts | 158° |
| 2026-05-04 03:47 | 44.27426 | -121.54055 | 5899 ft | 161 kts | 130° |
| 2026-05-04 03:47 | 44.26685 | -121.53028 | 5866 ft | 142 kts | 129° |
| 2026-05-04 03:48 | 44.25997 | -121.52062 | 5841 ft | 134 kts | 129° |
| 2026-05-04 03:48 | 44.25350 | -121.51154 | 5847 ft | 136 kts | 129° |
| 2026-05-04 03:48 | 44.24673 | -121.50223 | 5868 ft | 137 kts | 129° |
| 2026-05-04 03:48 | 44.23987 | -121.49289 | 5886 ft | 137 kts | 130° |
| 2026-05-04 03:49 | 44.23305 | -121.48361 | 5906 ft | 137 kts | 130° |
| 2026-05-04 03:49 | 44.22620 | -121.47438 | 5890 ft | 135 kts | 130° |
| 2026-05-04 03:49 | 44.21946 | -121.46514 | 5914 ft | 149 kts | 130° |
| 2026-05-04 03:49 | 44.21158 | -121.45420 | 6193 ft | 166 kts | 131° |
| 2026-05-04 03:50 | 44.20308 | -121.44275 | 6510 ft | 172 kts | 132° |
| 2026-05-04 03:50 | 44.19437 | -121.43100 | 6391 ft | 174 kts | 131° |
| 2026-05-04 03:50 | 44.18586 | -121.41940 | 6172 ft | 170 kts | 131° |
| 2026-05-04 03:50 | 44.17751 | -121.40796 | 5932 ft | 167 kts | 131° |
| 2026-05-04 03:51 | 44.16937 | -121.39656 | 5811 ft | 165 kts | 126° |
| 2026-05-04 03:51 | 44.16633 | -121.38203 | 5672 ft | 158 kts | 75° |
| 2026-05-04 03:51 | 44.17050 | -121.36824 | 5557 ft | 155 kts | 64° |
| 2026-05-04 03:51 | 44.17480 | -121.35439 | 5451 ft | 154 kts | 63° |
| 2026-05-04 03:52 | 44.17918 | -121.34141 | 5339 ft | 137 kts | 62° |
| 2026-05-04 03:52 | 44.18313 | -121.33011 | 5226 ft | 126 kts | 61° |
| 2026-05-04 03:52 | 44.18695 | -121.31940 | 5086 ft | 120 kts | 60° |
| 2026-05-04 03:52 | 44.19067 | -121.30905 | 5001 ft | 119 kts | 59° |
| 2026-05-04 03:53 | 44.19445 | -121.29869 | 5010 ft | 119 kts | 60° |
| 2026-05-04 03:53 | 44.19815 | -121.28831 | 4992 ft | 120 kts | 61° |
| 2026-05-04 03:53 | 44.20179 | -121.27787 | 5016 ft | 121 kts | 58° |
| 2026-05-04 03:53 | 44.20597 | -121.26781 | 5004 ft | 122 kts | 56° |
| 2026-05-04 03:54 | 44.21027 | -121.25777 | 4952 ft | 120 kts | 57° |
| 2026-05-04 03:54 | 44.21438 | -121.24765 | 4869 ft | 120 kts | 58° |
| 2026-05-04 03:54 | 44.21856 | -121.23779 | 4816 ft | 117 kts | 57° |
| 2026-05-04 03:54 | 44.22286 | -121.22810 | 4795 ft | 116 kts | 58° |
| 2026-05-04 03:55 | 44.22685 | -121.21901 | 4767 ft | 109 kts | 58° |
| 2026-05-04 03:55 | 44.23072 | -121.20947 | 4512 ft | 118 kts | 60° |
| 2026-05-04 03:55 | 44.23471 | -121.19930 | 4182 ft | 120 kts | 60° |
| 2026-05-04 03:55 | 44.23851 | -121.18910 | 3936 ft | 116 kts | 61° |
| 2026-05-04 03:56 | 44.24235 | -121.17907 | 3670 ft | 118 kts | 56° |
| 2026-05-04 03:56 | 44.24659 | -121.16893 | 3376 ft | 125 kts | 58° |
| 2026-05-04 03:56 | 44.25092 | -121.15837 | 3112 ft | 121 kts | 57° |
| 2026-05-04 03:56 | 44.25460 | -121.14944 | 3073 ft | 77 kts | 57° |
| 2026-05-04 03:57 | 44.25646 | -121.14499 | 3064 ft | 28 kts | 64° |
| 2026-05-04 03:57 | 44.25729 | -121.14453 | 3061 ft | 11 kts | 332° |
| 2026-05-04 03:57 | 44.25755 | -121.14516 | 3062 ft | 2 kts | 258° |
| 2026-05-04 03:57 | 44.25755 | -121.14517 | 3062 ft | 0 kts | 258° |
| 2026-05-04 03:59 | 44.25753 | -121.14524 | 3061 ft | 3 kts | 252° |
| 2026-05-04 03:59 | 44.25728 | -121.14591 | 3062 ft | 10 kts | 240° |
| 2026-05-04 03:59 | 44.25692 | -121.14680 | 3063 ft | 11 kts | 240° |
| 2026-05-04 03:59 | 44.25651 | -121.14779 | 3067 ft | 13 kts | 240° |
| 2026-05-04 04:00 | 44.25605 | -121.14890 | 3064 ft | 14 kts | 240° |
| 2026-05-04 04:00 | 44.25556 | -121.15011 | 3069 ft | 15 kts | 240° |
| 2026-05-04 04:00 | 44.25502 | -121.15145 | 3074 ft | 16 kts | 239° |
| 2026-05-04 04:00 | 44.25441 | -121.15295 | 3070 ft | 20 kts | 242° |
| 2026-05-04 04:01 | 44.25373 | -121.15465 | 3085 ft | 20 kts | 241° |
| 2026-05-04 04:01 | 44.25301 | -121.15637 | 3085 ft | 20 kts | 240° |
| 2026-05-04 04:01 | 44.25258 | -121.15741 | 3087 ft | 16 kts | 241° |
| 2026-05-04 04:01 | 44.25241 | -121.15814 | 3080 ft | 5 kts | 277° |
| 2026-05-04 04:02 | 44.25257 | -121.15840 | 3086 ft | 0 kts | 327° |
| 2026-05-04 04:02 | 44.25258 | -121.15841 | 3086 ft | 0 kts | 327° |
| 2026-05-04 04:02 | 44.25259 | -121.15843 | 3086 ft | 0 kts | 306° |
| 2026-05-04 04:02 | 44.25260 | -121.15852 | 3081 ft | 4 kts | 286° |
| 2026-05-04 04:03 | 44.25277 | -121.15908 | 3086 ft | 7 kts | 323° |
| 2026-05-04 04:03 | 44.25313 | -121.15906 | 3080 ft | 5 kts | 46° |
| 2026-05-04 04:03 | 44.25317 | -121.15882 | 3078 ft | 0 kts | 109° |
| 2026-05-04 04:03 | 44.25313 | -121.15875 | 3078 ft | 2 kts | 136° |
| 2026-05-04 04:04 | 44.25305 | -121.15870 | 3078 ft | 0 kts | 169° |
| 2026-05-04 04:04 | 44.25301 | -121.15871 | 3081 ft | 1 kts | 188° |
| 2026-05-04 04:04 | 44.25299 | -121.15871 | 3080 ft | 1 kts | 190° |
| 2026-05-04 04:04 | 44.25293 | -121.15873 | 3087 ft | 0 kts | 192° |